ENKB/KSU METAR and TAF weather

Enter ICAO airport designator
Station Type Date Time Source
ENKB METAR 2021/09/16 21:20 UTC NOAA

ENKB 162120Z AUTO VRB03KT 9999 BKN055/// 12/11 Q1016 RMK WIND 745FT 20004KT


Station Type Date Time Source
ENKB Decoded METAR 2021/09/16 21:20 UTC NOAA

Kristiansund / Kvernberget, Norway (ENKB) 63-07N 007-50E 62M
Sep 16, 2021 - 05:20 PM EDT / 2021.09.16 2120 UTC
Wind: Variable at 3 MPH (3 KT):0
Visibility: greater than 7 mile(s):0
Sky conditions: mostly cloudy
Temperature: 53 F (12 C)
Dew Point: 51 F (11 C)
Relative Humidity: 93%
Pressure (altimeter): 30.00 in. Hg (1016 hPa)
ob: ENKB 162120Z AUTO VRB03KT 9999 BKN055/// 12/11 Q1016 RMK WIND 745FT 20004KT
cycle: 21

Station Type Date Time Source
ENKB TAF 2010/02/05 07:50 UTC NOAA

METAR ENKB 050750Z 15011KT 110V200 9999 SCT055 BKN070 03/M05 Q1007

Example: see airport list